createdAt,value
2017-07-01T00:00:41.845Z,998.77
2017-07-01T00:01:41.788Z,998.74
2017-07-01T00:02:41.810Z,998.76
2017-07-01T00:03:42.917Z,998.75
2017-07-01T00:04:43.915Z,998.75
2017-07-01T00:05:37.948Z,998.72
2017-07-01T00:06:38.049Z,998.78
2017-07-01T00:07:33.078Z,998.79
2017-07-01T00:08:28.084Z,998.80
2017-07-01T00:09:28.026Z,998.78
2017-07-01T00:10:23.205Z,998.79
2017-07-01T00:11:18.198Z,998.76
2017-07-01T00:12:18.155Z,998.80
2017-07-01T00:13:13.303Z,998.78
2017-07-01T00:14:08.530Z,998.76
2017-07-01T00:15:09.376Z,998.75
2017-07-01T00:16:10.356Z,998.77
2017-07-01T00:17:05.357Z,998.74
2017-07-01T00:17:59.404Z,998.76
2017-07-01T00:18:59.436Z,998.81
2017-07-01T00:19:59.553Z,998.79
2017-07-01T00:20:54.517Z,998.81
2017-07-01T00:21:48.543Z,998.78
2017-07-01T00:22:36.611Z,998.77
2017-07-01T00:23:30.725Z,998.77
2017-07-01T00:24:25.681Z,998.77
2017-07-01T00:25:26.779Z,998.79
2017-07-01T00:26:26.713Z,998.80
2017-07-01T00:27:15.058Z,998.79
2017-07-01T00:28:09.890Z,998.76
2017-07-01T00:29:03.873Z,998.78
2017-07-01T00:30:03.985Z,998.80
2017-07-01T00:30:58.972Z,998.76
2017-07-01T00:31:46.938Z,998.80
2017-07-01T00:32:36.115Z,998.80
2017-07-01T00:33:31.207Z,998.80
2017-07-01T00:34:20.106Z,998.77
2017-07-01T00:35:09.131Z,998.78
2017-07-01T00:36:03.322Z,998.80
2017-07-01T00:36:57.319Z,998.79
2017-07-01T00:37:57.254Z,998.76
2017-07-01T00:38:51.330Z,998.80
2017-07-01T00:39:45.444Z,998.76
2017-07-01T00:40:34.522Z,998.74
2017-07-01T00:41:23.491Z,998.76
2017-07-01T00:42:12.603Z,998.75
2017-07-01T00:43:06.714Z,998.79
2017-07-01T00:43:54.550Z,998.80
2017-07-01T00:44:43.765Z,998.76
2017-07-01T00:45:43.608Z,998.78
2017-07-01T00:46:37.680Z,998.77
2017-07-01T00:47:37.847Z,998.75
2017-07-01T00:48:37.890Z,998.77
2017-07-01T00:49:31.789Z,998.77
2017-07-01T00:50:37.835Z,998.77
2017-07-01T00:51:32.833Z,998.74
2017-07-01T00:52:21.930Z,998.75
2017-07-01T00:53:22.948Z,998.76
2017-07-01T00:54:22.975Z,998.73
2017-07-01T00:55:17.097Z,998.77
2017-07-01T00:56:11.134Z,998.74
2017-07-01T00:57:11.162Z,998.69
2017-07-01T00:58:06.192Z,998.66
2017-07-01T00:59:06.181Z,998.67
2017-07-01T01:00:00.247Z,998.67
2017-07-01T01:01:00.249Z,998.65
2017-07-01T01:01:55.286Z,998.65
2017-07-01T01:02:56.227Z,998.65
2017-07-01T01:03:56.341Z,998.63
2017-07-01T01:04:56.409Z,998.62
2017-07-01T01:05:51.436Z,998.62
2017-07-01T01:06:40.486Z,998.65
2017-07-01T01:07:29.416Z,998.66
2017-07-01T01:08:24.498Z,998.67
2017-07-01T01:09:18.659Z,998.62
2017-07-01T01:10:13.634Z,998.60
2017-07-01T01:11:13.696Z,998.64
2017-07-01T01:12:08.143Z,998.59
2017-07-01T01:13:07.598Z,998.60
2017-07-01T01:14:02.765Z,998.56
2017-07-01T01:15:08.750Z,998.56
2017-07-01T01:16:03.963Z,998.61
2017-07-01T01:16:57.996Z,998.57
2017-07-01T01:17:57.954Z,998.56
2017-07-01T01:18:57.881Z,998.54
2017-07-01T01:19:57.951Z,998.55
2017-07-01T01:21:04.030Z,998.55
2017-07-01T01:21:59.045Z,998.50
2017-07-01T01:22:59.069Z,998.52
2017-07-01T01:23:53.075Z,998.53
2017-07-01T01:24:53.250Z,998.53
2017-07-01T01:25:47.200Z,998.50
2017-07-01T01:26:36.277Z,998.54
2017-07-01T01:27:24.312Z,998.54
2017-07-01T01:28:12.259Z,998.54
2017-07-01T01:29:07.846Z,998.55
2017-07-01T01:30:01.488Z,998.53
2017-07-01T01:30:50.509Z,998.53
2017-07-01T01:31:44.485Z,998.50
2017-07-01T01:32:39.702Z,998.52
2017-07-01T01:33:33.754Z,998.49
2017-07-01T01:34:28.627Z,998.53
2017-07-01T01:35:22.561Z,998.50
2017-07-01T01:36:22.692Z,998.50
2017-07-01T01:37:17.620Z,998.52
2017-07-01T01:38:11.756Z,998.51
2017-07-01T01:39:11.772Z,998.48
2017-07-01T01:40:11.817Z,998.46
2017-07-01T01:41:06.990Z,998.50
2017-07-01T01:41:55.808Z,998.48
2017-07-01T01:42:44.909Z,998.46
2017-07-01T01:43:32.971Z,998.47
2017-07-01T01:44:21.021Z,998.44
2017-07-01T01:45:21.994Z,998.44
2017-07-01T01:46:16.024Z,998.46
2017-07-01T01:47:10.158Z,998.44
2017-07-01T01:48:10.114Z,998.38
2017-07-01T01:49:10.863Z,998.35
2017-07-01T01:50:05.280Z,998.35
2017-07-01T01:51:05.264Z,998.28
2017-07-01T01:52:05.359Z,998.25
2017-07-01T01:52:59.380Z,998.23
2017-07-01T01:53:59.338Z,998.19
2017-07-01T01:54:54.407Z,998.17
2017-07-01T01:55:54.454Z,998.12
2017-07-01T01:56:48.482Z,998.08
2017-07-01T01:57:48.574Z,998.05
2017-07-01T01:58:43.534Z,998.08
2017-07-01T01:59:38.613Z,998.07
2017-07-01T02:00:39.706Z,998.04
2017-07-01T02:01:39.774Z,998.05
2017-07-01T02:02:34.695Z,998.02
2017-07-01T02:03:34.948Z,998.05
2017-07-01T02:04:28.791Z,998.04
2017-07-01T02:05:28.754Z,998.05
2017-07-01T02:06:17.921Z,998.06
2017-07-01T02:07:06.815Z,998.07
2017-07-01T02:07:54.955Z,998.08
2017-07-01T02:08:54.900Z,998.11
2017-07-01T02:09:54.910Z,998.07
2017-07-01T02:10:50.064Z,998.08
2017-07-01T02:11:44.092Z,998.10
2017-07-01T02:12:44.126Z,998.08
2017-07-01T02:13:39.182Z,998.08
2017-07-01T02:14:34.260Z,998.08
2017-07-01T02:15:34.245Z,998.10
2017-07-01T02:16:28.268Z,998.05
2017-07-01T02:17:29.236Z,998.08
2017-07-01T02:18:29.407Z,998.04
2017-07-01T02:19:24.365Z,998.08
2017-07-01T02:20:18.472Z,998.06
2017-07-01T02:21:12.472Z,998.05
2017-07-01T02:22:01.522Z,998.09
2017-07-01T02:23:01.553Z,998.04
2017-07-01T02:24:01.594Z,998.11
2017-07-01T02:24:55.540Z,998.10
2017-07-01T02:25:55.600Z,998.15
2017-07-01T02:26:50.660Z,998.11
2017-07-01T02:27:45.775Z,998.11
2017-07-01T02:28:45.701Z,998.09
2017-07-01T02:29:40.856Z,998.07
2017-07-01T02:30:35.775Z,998.10
2017-07-01T02:31:35.824Z,998.11
2017-07-01T02:32:29.947Z,998.13
2017-07-01T02:33:24.901Z,998.13
2017-07-01T02:34:13.954Z,998.12
2017-07-01T02:35:01.963Z,998.05
2017-07-01T02:35:57.129Z,998.11
2017-07-01T02:36:57.044Z,998.09
2017-07-01T02:37:45.099Z,998.16
2017-07-01T02:38:39.124Z,998.14
2017-07-01T02:39:33.286Z,998.17
2017-07-01T02:40:33.229Z,998.21
2017-07-01T02:41:33.226Z,998.21
2017-07-01T02:42:28.212Z,998.20
2017-07-01T02:43:22.429Z,998.20
2017-07-01T02:44:22.366Z,998.15
2017-07-01T02:45:16.343Z,998.21
2017-07-01T02:46:17.478Z,998.20
2017-07-01T02:47:17.424Z,998.23
2017-07-01T02:48:05.510Z,998.23
2017-07-01T02:48:54.472Z,998.22
2017-07-01T02:49:42.551Z,998.26
2017-07-01T02:50:42.700Z,998.20
2017-07-01T02:51:31.679Z,998.21
2017-07-01T02:52:19.677Z,998.24
2017-07-01T02:53:08.792Z,998.19
2017-07-01T02:53:56.879Z,998.22
2017-07-01T02:54:46.072Z,998.21
2017-07-01T02:55:34.835Z,998.17
2017-07-01T02:56:23.046Z,998.16
2017-07-01T02:57:16.915Z,998.12
2017-07-01T02:58:17.109Z,998.12
2017-07-01T02:59:12.074Z,998.11
2017-07-01T03:00:06.224Z,998.08
2017-07-01T03:01:01.132Z,998.06
2017-07-01T03:01:55.142Z,998.09
2017-07-01T03:02:55.186Z,998.07
2017-07-01T03:03:55.274Z,998.10
2017-07-01T03:04:50.310Z,998.04
2017-07-01T03:05:45.332Z,998.09
2017-07-01T03:06:46.418Z,998.08
2017-07-01T03:07:40.451Z,998.09
2017-07-01T03:08:28.347Z,998.10
2017-07-01T03:09:28.409Z,998.11
2017-07-01T03:10:28.507Z,998.09
2017-07-01T03:11:23.463Z,998.09
2017-07-01T03:12:12.539Z,998.08
2017-07-01T03:13:00.731Z,998.08
2017-07-01T03:13:55.710Z,998.12
2017-07-01T03:14:44.644Z,998.09
2017-07-01T03:15:39.671Z,998.05
2017-07-01T03:16:27.775Z,998.04
2017-07-01T03:17:28.578Z,998.06
2017-07-01T03:18:28.808Z,998.01
2017-07-01T03:19:23.898Z,998.01
2017-07-01T03:20:17.890Z,997.99
2017-07-01T03:21:17.892Z,997.99
2017-07-01T03:22:06.896Z,997.96
2017-07-01T03:22:55.110Z,997.98
2017-07-01T03:23:55.113Z,997.93
2017-07-01T03:24:43.109Z,997.97
2017-07-01T03:25:44.246Z,997.98
2017-07-01T03:26:39.206Z,998.01
2017-07-01T03:27:28.290Z,998.02
2017-07-01T03:28:17.351Z,998.04
2017-07-01T03:29:18.442Z,998.01
2017-07-01T03:30:18.352Z,998.00
2017-07-01T03:31:13.438Z,997.99
2017-07-01T03:32:13.334Z,997.97
2017-07-01T03:33:08.489Z,997.95
2017-07-01T03:34:02.433Z,997.99
2017-07-01T03:34:57.562Z,997.96
2017-07-01T03:35:51.734Z,997.99
2017-07-01T03:36:46.565Z,997.96
2017-07-01T03:37:46.647Z,997.95
2017-07-01T03:38:40.726Z,997.95
2017-07-01T03:39:40.725Z,997.99
2017-07-01T03:40:35.785Z,998.00
2017-07-01T03:41:23.787Z,998.00
2017-07-01T03:42:25.030Z,998.02
2017-07-01T03:43:26.360Z,998.01
2017-07-01T03:44:20.942Z,998.04
2017-07-01T03:45:15.962Z,998.06
2017-07-01T03:46:04.049Z,997.98
2017-07-01T03:47:10.091Z,998.02
2017-07-01T03:48:04.515Z,998.03
2017-07-01T03:49:04.036Z,998.08
2017-07-01T03:49:59.156Z,998.06
2017-07-01T03:50:48.250Z,998.05
2017-07-01T03:51:42.256Z,998.06
2017-07-01T03:52:42.209Z,998.05
2017-07-01T03:53:48.217Z,998.08
2017-07-01T03:54:43.243Z,998.03
2017-07-01T03:55:32.360Z,998.02
2017-07-01T03:56:32.409Z,998.04
2017-07-01T03:57:26.408Z,998.04
2017-07-01T03:58:14.464Z,998.02
2017-07-01T03:59:03.538Z,998.03
2017-07-01T03:59:51.617Z,998.05
2017-07-01T04:00:45.561Z,998.02
2017-07-01T04:01:45.670Z,998.11
2017-07-01T04:02:34.781Z,998.03
2017-07-01T04:03:29.101Z,998.07
2017-07-01T04:04:22.747Z,998.08
2017-07-01T04:05:11.842Z,998.08
2017-07-01T04:06:05.782Z,998.09
2017-07-01T04:06:54.891Z,998.03
2017-07-01T04:07:54.975Z,998.04
2017-07-01T04:08:54.881Z,997.97
2017-07-01T04:09:54.975Z,997.99
2017-07-01T04:10:55.096Z,997.96
2017-07-01T04:11:50.086Z,997.97
2017-07-01T04:12:39.095Z,997.92
2017-07-01T04:13:33.195Z,997.92
2017-07-01T04:14:27.137Z,997.95
2017-07-01T04:15:16.264Z,997.92
2017-07-01T04:16:04.322Z,997.96
2017-07-01T04:16:58.294Z,997.89
2017-07-01T04:17:52.382Z,997.94
2017-07-01T04:18:53.517Z,997.94
2017-07-01T04:19:48.471Z,997.93
2017-07-01T04:20:36.499Z,997.95
2017-07-01T04:21:30.448Z,997.90
2017-07-01T04:22:30.634Z,997.90
2017-07-01T04:23:18.606Z,997.86
2017-07-01T04:24:13.611Z,997.94
2017-07-01T04:25:13.644Z,997.89
2017-07-01T04:26:08.697Z,997.83
2017-07-01T04:27:02.741Z,997.89
2017-07-01T04:28:03.215Z,997.88
2017-07-01T04:28:57.908Z,997.88
2017-07-01T04:29:45.826Z,997.87
2017-07-01T04:30:40.835Z,997.85
2017-07-01T04:31:40.952Z,997.83
2017-07-01T04:32:40.979Z,997.81
2017-07-01T04:33:41.085Z,997.83
2017-07-01T04:34:36.140Z,997.84
2017-07-01T04:35:30.129Z,997.83
2017-07-01T04:36:19.197Z,997.82
2017-07-01T04:37:14.169Z,997.83
2017-07-01T04:38:08.208Z,997.83
2017-07-01T04:39:08.209Z,997.82
2017-07-01T04:40:02.752Z,997.84
2017-07-01T04:41:02.375Z,997.91
2017-07-01T04:41:57.327Z,997.96
2017-07-01T04:42:52.303Z,997.99
2017-07-01T04:43:52.452Z,998.00
2017-07-01T04:44:46.486Z,998.03
2017-07-01T04:45:41.406Z,998.04
2017-07-01T04:46:41.580Z,998.08
2017-07-01T04:47:35.528Z,998.03
2017-07-01T04:48:35.601Z,998.08
2017-07-01T04:49:24.693Z,998.08
2017-07-01T04:50:18.775Z,998.02
2017-07-01T04:51:12.880Z,998.04
2017-07-01T04:52:12.922Z,998.03
2017-07-01T04:53:01.890Z,997.99
2017-07-01T04:53:55.800Z,998.02
2017-07-01T04:54:50.897Z,998.05
2017-07-01T04:55:50.955Z,997.97
2017-07-01T04:56:46.036Z,997.95
2017-07-01T04:57:35.044Z,998.00
2017-07-01T04:58:30.400Z,997.96
2017-07-01T04:59:24.062Z,997.98
2017-07-01T05:00:13.246Z,998.00
2017-07-01T05:01:07.201Z,998.04
2017-07-01T05:02:07.351Z,997.95
2017-07-01T05:03:02.228Z,998.00
2017-07-01T05:03:57.282Z,998.01
2017-07-01T05:04:58.446Z,998.02
2017-07-01T05:05:52.386Z,997.95
2017-07-01T05:06:46.492Z,997.97
2017-07-01T05:07:47.487Z,998.02
2017-07-01T05:08:41.750Z,998.01
2017-07-01T05:09:35.397Z,998.06
2017-07-01T05:10:35.565Z,998.05
2017-07-01T05:11:24.602Z,998.01
2017-07-01T05:12:19.617Z,998.04
2017-07-01T05:13:19.727Z,998.06
2017-07-01T05:14:14.803Z,998.07
2017-07-01T05:15:08.817Z,998.10
2017-07-01T05:16:03.227Z,998.09
2017-07-01T05:16:57.817Z,998.06
2017-07-01T05:17:57.887Z,998.09
2017-07-01T05:18:52.985Z,998.06
2017-07-01T05:19:47.943Z,998.09
2017-07-01T05:20:48.035Z,998.11
2017-07-01T05:21:42.002Z,998.11
2017-07-01T05:22:31.057Z,998.12
2017-07-01T05:23:25.090Z,998.12
2017-07-01T05:24:20.172Z,998.16
2017-07-01T05:25:15.244Z,998.18
2017-07-01T05:26:04.248Z,998.15
2017-07-01T05:26:52.289Z,998.11
2017-07-01T05:27:41.317Z,998.14
2017-07-01T05:28:30.712Z,998.20
2017-07-01T05:29:24.411Z,998.18
2017-07-01T05:30:18.407Z,998.23
2017-07-01T05:31:18.478Z,998.21
2017-07-01T05:32:12.575Z,998.21
2017-07-01T05:33:06.557Z,998.19
2017-07-01T05:34:06.555Z,998.22
2017-07-01T05:35:00.677Z,998.25
2017-07-01T05:36:01.157Z,998.18
2017-07-01T05:36:49.670Z,998.24
2017-07-01T05:37:49.758Z,998.24
2017-07-01T05:38:43.903Z,998.27
2017-07-01T05:39:31.830Z,998.23
2017-07-01T05:40:20.855Z,998.24
2017-07-01T05:41:21.135Z,998.24
2017-07-01T05:42:14.975Z,998.24
2017-07-01T05:43:09.991Z,998.23
2017-07-01T05:44:04.168Z,998.22
2017-07-01T05:44:57.988Z,998.25
2017-07-01T05:45:53.061Z,998.26
2017-07-01T05:46:47.190Z,998.25
2017-07-01T05:47:47.192Z,998.29
2017-07-01T05:48:41.276Z,998.26
2017-07-01T05:49:41.261Z,998.25
2017-07-01T05:50:41.242Z,998.24
2017-07-01T05:51:29.446Z,998.30
2017-07-01T05:52:23.576Z,998.27
2017-07-01T05:53:11.434Z,998.32
2017-07-01T05:54:12.488Z,998.38
2017-07-01T05:55:07.397Z,998.38
2017-07-01T05:56:02.781Z,998.37
2017-07-01T05:56:51.531Z,998.37
2017-07-01T05:57:40.715Z,998.40
2017-07-01T05:58:29.214Z,998.36
2017-07-01T05:59:16.797Z,998.37
2017-07-01T06:00:10.782Z,998.38
2017-07-01T06:01:05.807Z,998.40
2017-07-01T06:02:05.813Z,998.39
2017-07-01T06:02:54.900Z,998.43
2017-07-01T06:03:48.947Z,998.44
2017-07-01T06:04:42.970Z,998.42
2017-07-01T06:05:37.023Z,998.51
2017-07-01T06:06:37.101Z,998.48
2017-07-01T06:07:32.029Z,998.50
2017-07-01T06:08:21.349Z,998.47
2017-07-01T06:09:09.212Z,998.49
2017-07-01T06:10:04.110Z,998.51
2017-07-01T06:10:59.359Z,998.54
2017-07-01T06:11:48.267Z,998.48
2017-07-01T06:12:36.458Z,998.54
2017-07-01T06:13:31.037Z,998.55
2017-07-01T06:14:25.472Z,998.55
2017-07-01T06:15:19.434Z,998.56
2017-07-01T06:16:14.490Z,998.64
2017-07-01T06:17:08.605Z,998.63
2017-07-01T06:17:57.662Z,998.69
2017-07-01T06:18:52.589Z,998.69
2017-07-01T06:19:40.773Z,998.70
2017-07-01T06:20:29.714Z,998.71
2017-07-01T06:21:24.818Z,998.78
2017-07-01T06:22:19.837Z,998.80
2017-07-01T06:23:14.851Z,998.77
2017-07-01T06:24:08.868Z,998.77
2017-07-01T06:25:02.980Z,998.83
2017-07-01T06:25:51.091Z,998.85
2017-07-01T06:26:40.052Z,998.84
2017-07-01T06:27:34.037Z,998.85
2017-07-01T06:28:28.046Z,998.86
2017-07-01T06:29:16.353Z,998.90
2017-07-01T06:30:10.102Z,998.84
2017-07-01T06:30:59.296Z,998.83
2017-07-01T06:31:48.389Z,998.87
2017-07-01T06:32:37.413Z,998.80
2017-07-01T06:33:31.756Z,998.82
2017-07-01T06:34:20.483Z,998.80
2017-07-01T06:35:08.443Z,998.80
2017-07-01T06:35:57.506Z,998.80
2017-07-01T06:36:51.551Z,998.78
2017-07-01T06:37:40.613Z,998.81
2017-07-01T06:38:40.642Z,998.78
2017-07-01T06:39:34.633Z,998.78
2017-07-01T06:40:28.604Z,998.81
2017-07-01T06:41:16.797Z,998.83
2017-07-01T06:42:16.718Z,998.76
2017-07-01T06:43:05.978Z,998.79
2017-07-01T06:44:00.375Z,998.81
2017-07-01T06:44:54.932Z,998.78
2017-07-01T06:45:49.025Z,998.82
2017-07-01T06:46:36.990Z,998.87
2017-07-01T06:47:31.104Z,998.89
2017-07-01T06:48:25.081Z,998.91
2017-07-01T06:49:25.112Z,998.91
2017-07-01T06:50:13.127Z,999.00
2017-07-01T06:51:08.171Z,998.96
2017-07-01T06:52:02.276Z,998.94
2017-07-01T06:52:50.209Z,998.98
2017-07-01T06:53:45.563Z,998.99
2017-07-01T06:54:40.419Z,998.95
2017-07-01T06:55:35.394Z,999.00
2017-07-01T06:56:23.469Z,999.00
2017-07-01T06:57:23.510Z,999.00
2017-07-01T06:58:17.525Z,999.01
2017-07-01T06:59:11.673Z,999.04
2017-07-01T07:00:06.664Z,999.05
2017-07-01T07:00:54.872Z,999.05
2017-07-01T07:01:54.656Z,999.09
2017-07-01T07:02:43.743Z,999.07
2017-07-01T07:03:37.744Z,999.10
2017-07-01T07:04:37.894Z,999.11
2017-07-01T07:05:26.844Z,999.16
2017-07-01T07:06:21.024Z,999.17
2017-07-01T07:07:14.897Z,999.15
2017-07-01T07:08:03.980Z,999.15
2017-07-01T07:08:58.089Z,999.16
2017-07-01T07:09:58.137Z,999.20
2017-07-01T07:10:46.165Z,999.19
2017-07-01T07:11:34.160Z,999.20
2017-07-01T07:12:28.240Z,999.21
2017-07-01T07:13:17.289Z,999.19
2017-07-01T07:14:05.257Z,999.15
2017-07-01T07:14:53.403Z,999.16
2017-07-01T07:15:47.339Z,999.17
2017-07-01T07:16:36.897Z,999.14
2017-07-01T07:17:25.517Z,999.12
2017-07-01T07:18:19.538Z,999.13
2017-07-01T07:19:07.581Z,999.18
2017-07-01T07:20:01.603Z,999.17
2017-07-01T07:20:49.731Z,999.18
2017-07-01T07:21:38.762Z,999.20
2017-07-01T07:22:32.828Z,999.24
2017-07-01T07:23:20.860Z,999.25
2017-07-01T07:24:08.875Z,999.22
2017-07-01T07:24:57.797Z,999.25
2017-07-01T07:25:46.001Z,999.28
2017-07-01T07:26:40.109Z,999.29
2017-07-01T07:27:28.057Z,999.33
2017-07-01T07:28:23.041Z,999.35
2017-07-01T07:29:17.132Z,999.39
2017-07-01T07:30:23.170Z,999.41
2017-07-01T07:31:18.243Z,999.39
2017-07-01T07:32:07.318Z,999.42
2017-07-01T07:33:07.292Z,999.38
2017-07-01T07:33:56.371Z,999.40
2017-07-01T07:34:45.418Z,999.41
2017-07-01T07:35:34.377Z,999.44
2017-07-01T07:36:23.455Z,999.39
2017-07-01T07:37:18.452Z,999.42
2017-07-01T07:38:18.596Z,999.42
2017-07-01T07:39:12.569Z,999.42
2017-07-01T07:40:06.596Z,999.44
2017-07-01T07:41:01.708Z,999.44
2017-07-01T07:41:55.806Z,999.51
2017-07-01T07:42:49.803Z,999.46
2017-07-01T07:43:43.758Z,999.38
2017-07-01T07:44:31.977Z,999.36
2017-07-01T07:45:20.818Z,999.41
2017-07-01T07:46:14.946Z,999.48
2017-07-01T07:47:04.016Z,999.53
2017-07-01T07:47:58.583Z,999.54
2017-07-01T07:48:46.132Z,999.54
2017-07-01T07:49:35.162Z,999.51
2017-07-01T07:50:29.187Z,999.49
2017-07-01T07:51:29.121Z,999.59
2017-07-01T07:52:23.294Z,999.58
2017-07-01T07:53:12.255Z,999.62
2017-07-01T07:54:06.316Z,999.55
2017-07-01T07:55:00.327Z,999.61
2017-07-01T07:56:01.387Z,999.62
2017-07-01T07:57:02.473Z,999.57
2017-07-01T07:58:02.442Z,999.56
2017-07-01T07:58:51.600Z,999.62
2017-07-01T07:59:45.587Z,999.54
2017-07-01T08:00:39.686Z,999.59
2017-07-01T08:01:28.695Z,999.62
2017-07-01T08:02:17.798Z,999.64
2017-07-01T08:03:11.722Z,999.60
2017-07-01T08:04:01.073Z,999.60
2017-07-01T08:04:54.876Z,999.56
2017-07-01T08:05:48.914Z,999.64
2017-07-01T08:06:36.936Z,999.67
2017-07-01T08:07:37.086Z,999.66
2017-07-01T08:08:26.019Z,999.61
2017-07-01T08:09:20.096Z,999.59
2017-07-01T08:10:09.169Z,999.68
2017-07-01T08:11:10.146Z,999.61
2017-07-01T08:12:11.205Z,999.60
2017-07-01T08:13:11.261Z,999.56
2017-07-01T08:14:05.282Z,999.62
2017-07-01T08:15:05.366Z,999.73
2017-07-01T08:15:53.453Z,999.75
2017-07-01T08:16:54.411Z,999.68
2017-07-01T08:17:49.448Z,999.75
2017-07-01T08:18:43.510Z,999.78
2017-07-01T08:19:37.574Z,999.79
2017-07-01T08:20:25.789Z,999.78
2017-07-01T08:21:20.781Z,999.74
2017-07-01T08:22:09.702Z,999.68
2017-07-01T08:23:03.879Z,999.74
2017-07-01T08:23:51.777Z,999.71
2017-07-01T08:24:46.888Z,999.60
2017-07-01T08:25:35.992Z,999.58
2017-07-01T08:26:29.921Z,999.65
2017-07-01T08:27:19.000Z,999.69
2017-07-01T08:28:08.173Z,999.67
2017-07-01T08:29:08.116Z,999.59
2017-07-01T08:30:02.165Z,999.59
2017-07-01T08:31:02.247Z,999.67
2017-07-01T08:31:56.765Z,999.63
2017-07-01T08:32:44.319Z,999.66
2017-07-01T08:33:33.701Z,999.78
2017-07-01T08:34:33.359Z,999.81
2017-07-01T08:35:28.315Z,999.81
2017-07-01T08:36:23.567Z,999.87
2017-07-01T08:37:23.506Z,999.87
2017-07-01T08:38:12.501Z,999.88
2017-07-01T08:39:06.965Z,999.85
2017-07-01T08:40:07.652Z,999.80
2017-07-01T08:41:07.638Z,999.81
2017-07-01T08:42:02.744Z,999.84
2017-07-01T08:42:57.846Z,999.87
2017-07-01T08:43:58.247Z,999.93
2017-07-01T08:44:52.822Z,1000.00
2017-07-01T08:45:47.930Z,1000.00
2017-07-01T08:46:41.942Z,1000.03
2017-07-01T08:47:41.951Z,1000.03
2017-07-01T08:48:29.957Z,999.94
2017-07-01T08:49:25.080Z,999.92
2017-07-01T08:50:20.090Z,999.93
2017-07-01T08:51:08.248Z,999.96
2017-07-01T08:51:56.602Z,999.96
2017-07-01T08:52:51.453Z,999.96
2017-07-01T08:53:51.353Z,999.95
2017-07-01T08:54:45.397Z,999.95
2017-07-01T08:55:33.345Z,1000.03
2017-07-01T08:56:27.481Z,999.88
2017-07-01T08:57:21.563Z,999.84
2017-07-01T08:58:15.779Z,999.80
2017-07-01T08:59:16.579Z,999.78
2017-07-01T09:00:11.645Z,999.76
2017-07-01T09:00:59.675Z,999.82
2017-07-01T09:01:48.702Z,999.89
2017-07-01T09:02:37.783Z,999.94
2017-07-01T09:03:31.885Z,999.94
2017-07-01T09:04:25.872Z,999.97
2017-07-01T09:05:25.872Z,999.95
2017-07-01T09:06:20.971Z,999.97
2017-07-01T09:07:14.949Z,1000.07
2017-07-01T09:08:15.019Z,1000.07
2017-07-01T09:09:10.109Z,1000.12
2017-07-01T09:10:04.019Z,1000.05
2017-07-01T09:11:04.199Z,1000.10
2017-07-01T09:11:58.319Z,1000.15
2017-07-01T09:12:46.329Z,1000.14
2017-07-01T09:13:41.286Z,1000.07
2017-07-01T09:14:30.375Z,1000.12
2017-07-01T09:15:19.362Z,1000.11
2017-07-01T09:16:07.485Z,1000.16
2017-07-01T09:16:56.451Z,1000.11
2017-07-01T09:17:51.525Z,1000.23
2017-07-01T09:18:45.519Z,1000.22
2017-07-01T09:19:39.632Z,1000.25
2017-07-01T09:20:33.586Z,1000.25
2017-07-01T09:21:28.696Z,1000.22
2017-07-01T09:22:17.692Z,1000.26
2017-07-01T09:23:06.920Z,1000.23
2017-07-01T09:24:00.810Z,1000.34
2017-07-01T09:25:00.908Z,1000.30
2017-07-01T09:25:54.822Z,1000.33
2017-07-01T09:26:48.888Z,1000.32
2017-07-01T09:27:43.038Z,1000.31
2017-07-01T09:28:38.589Z,1000.34
2017-07-01T09:29:33.103Z,1000.34
2017-07-01T09:30:33.082Z,1000.36
2017-07-01T09:31:21.145Z,1000.37
2017-07-01T09:32:15.105Z,1000.43
2017-07-01T09:33:09.209Z,1000.40
2017-07-01T09:34:09.381Z,1000.29
2017-07-01T09:35:03.436Z,1000.23
2017-07-01T09:35:58.414Z,1000.28
2017-07-01T09:36:47.395Z,1000.26
2017-07-01T09:37:42.486Z,1000.28
2017-07-01T09:38:30.560Z,1000.28
2017-07-01T09:39:24.641Z,1000.31
2017-07-01T09:40:24.635Z,1000.35
2017-07-01T09:41:13.738Z,1000.32
2017-07-01T09:42:07.723Z,1000.36
2017-07-01T09:43:01.782Z,1000.39
2017-07-01T09:44:01.776Z,1000.38
2017-07-01T09:45:01.797Z,1000.47
2017-07-01T09:45:49.842Z,1000.56
2017-07-01T09:46:43.896Z,1000.56
2017-07-01T09:47:37.967Z,1000.61
2017-07-01T09:48:32.912Z,1000.73
2017-07-01T09:49:33.098Z,1000.75
2017-07-01T09:50:22.071Z,1000.74
2017-07-01T09:51:17.047Z,1000.77
2017-07-01T09:52:17.169Z,1000.70
2017-07-01T09:53:06.244Z,1000.73
2017-07-01T09:53:54.305Z,1000.87
2017-07-01T09:54:54.268Z,1000.93
2017-07-01T09:55:43.344Z,1001.00
2017-07-01T09:56:31.384Z,1001.06
2017-07-01T09:57:26.689Z,1001.05
2017-07-01T09:58:26.562Z,1000.96
2017-07-01T09:59:14.576Z,1001.01
2017-07-01T10:00:08.648Z,1000.99
2017-07-01T10:00:57.549Z,1000.91
2017-07-01T10:01:45.706Z,1000.86
2017-07-01T10:02:45.689Z,1000.91
2017-07-01T10:03:35.280Z,1001.04
2017-07-01T10:04:28.776Z,1000.89
2017-07-01T10:05:28.924Z,1000.77
2017-07-01T10:06:22.909Z,1000.74
2017-07-01T10:07:22.964Z,1000.76
2017-07-01T10:08:16.988Z,1000.75
2017-07-01T10:09:10.969Z,1000.89
2017-07-01T10:10:05.080Z,1000.79
2017-07-01T10:10:54.083Z,1000.73
2017-07-01T10:11:49.190Z,1000.94
2017-07-01T10:12:37.241Z,1000.89
2017-07-01T10:13:26.563Z,1000.85
2017-07-01T10:14:15.419Z,1000.91
2017-07-01T10:15:04.462Z,1000.96
2017-07-01T10:15:53.768Z,1001.16
2017-07-01T10:16:47.512Z,1001.36
2017-07-01T10:17:36.473Z,1001.38
2017-07-01T10:18:30.684Z,1001.35
2017-07-01T10:19:25.613Z,1001.16
2017-07-01T10:20:13.663Z,1001.13
2017-07-01T10:21:07.737Z,1001.11
2017-07-01T10:22:07.820Z,1001.19
2017-07-01T10:22:56.755Z,1001.22
2017-07-01T10:23:50.987Z,1001.18
2017-07-01T10:24:50.939Z,1001.24
2017-07-01T10:25:46.018Z,1001.12
2017-07-01T10:26:40.933Z,1001.05
2017-07-01T10:27:41.999Z,1001.03
2017-07-01T10:28:42.092Z,1000.92
2017-07-01T10:29:36.432Z,1000.93
2017-07-01T10:30:31.292Z,1000.92
2017-07-01T10:31:25.258Z,1000.88
2017-07-01T10:32:19.341Z,1000.90
2017-07-01T10:33:19.337Z,1000.96
2017-07-01T10:34:14.323Z,1000.98
2017-07-01T10:35:08.434Z,1000.95
2017-07-01T10:36:02.481Z,1001.00
2017-07-01T10:36:50.506Z,1001.02
2017-07-01T10:37:44.551Z,1000.97
2017-07-01T10:38:32.612Z,1000.97
2017-07-01T10:39:26.687Z,1001.02
2017-07-01T10:40:14.715Z,1001.10
2017-07-01T10:41:08.893Z,1001.07
2017-07-01T10:42:02.775Z,1001.06
2017-07-01T10:43:02.910Z,1001.15
2017-07-01T10:43:57.021Z,1001.06
2017-07-01T10:44:51.967Z,1001.05
2017-07-01T10:45:40.117Z,1001.09
2017-07-01T10:46:34.968Z,1001.21
2017-07-01T10:47:29.102Z,1001.19
2017-07-01T10:48:17.046Z,1001.13
2017-07-01T10:49:05.174Z,1001.14
2017-07-01T10:49:53.252Z,1001.17
2017-07-01T10:50:48.262Z,1001.24
2017-07-01T10:51:42.292Z,1001.26
2017-07-01T10:52:37.427Z,1001.28
2017-07-01T10:53:31.400Z,1001.30
2017-07-01T10:54:31.526Z,1001.26
2017-07-01T10:55:25.501Z,1001.25
2017-07-01T10:56:13.584Z,1001.29
2017-07-01T10:57:07.560Z,1001.30
2017-07-01T10:58:01.664Z,1001.34
2017-07-01T10:58:49.722Z,1001.37
2017-07-01T10:59:43.780Z,1001.35
2017-07-01T11:00:32.752Z,1001.44
2017-07-01T11:01:27.847Z,1001.66
2017-07-01T11:02:22.806Z,1001.63
2017-07-01T11:03:22.966Z,1001.53
2017-07-01T11:04:10.957Z,1001.39
2017-07-01T11:04:59.974Z,1001.32
2017-07-01T11:06:00.022Z,1001.31
2017-07-01T11:06:49.059Z,1001.39
2017-07-01T11:07:38.093Z,1001.35
2017-07-01T11:08:26.158Z,1001.39
2017-07-01T11:09:14.260Z,1001.43
2017-07-01T11:10:08.197Z,1001.44
2017-07-01T11:10:57.356Z,1001.52
2017-07-01T11:11:45.480Z,1001.49
2017-07-01T11:12:40.421Z,1001.41